Terminal Aerodrome Forecast
Issued by NWS

Current Version | Previous Version | Text Only | Print | Product List | Glossary Off
Versions: 1 2 3 4 5 6 7 8 9 10 11 12 13 14 15 16 17 18 19 20 21 22

000
FTUS41 KILN 231700
TAFLUK
TAF
KLUK 231730Z 2318/2418 22005KT P6SM FEW045 SCT150 BKN250
     FM232200 VRB02KT P6SM SCT100 BKN250
     FM241300 19007KT P6SM SCT050 BKN100=

USA.gov is the U.S. government's official web portal to all federal, state and local government web resources and services.